Estación Meteorológica Peña el Pijo (Robertgarden) [ 07/21/19 02:36:41 CEST ]

Fecha Hora Presion(HPa) Temp (°C) Humedad % Rocio (°C) Viento ( m/s) Direccion Lluvia 1Hora(mm) Lluvia 24H(mm) LLuvia Total(mm)
2018-Nov-21 01:01:54 998.700 7.2 82 4.3       1.55 150.73
2018-Nov-21 02:01:43 999.300 7.2 81 4.2       1.55 150.73
2018-Nov-21 03:01:45 999.900 7.1 79 3.7       1.55 150.73
2018-Nov-21 04:01:41 1000.100 7.2 79 3.8 1.5 NW   1.55 150.73
2018-Nov-21 05:01:41 1000.200 6.9 79 3.5       1.55 150.73
2018-Nov-21 06:01:44 1000.400 7.1 79 3.7       1.55 150.73
2018-Nov-21 07:01:42 1000.800 6.9 80 3.7       1.55 150.73
2018-Nov-21 08:01:47 1001.300 6.2 80 3.0       1.55 150.73
2018-Nov-21 09:01:37 1001.500 5.6 82 2.7       1.55 150.73
2018-Nov-21 10:01:54 1002.300 10.9 76 6.8       1.03 150.73
2018-Nov-21 11:01:57 1002.800 12.6 65 6.2       1.03 150.73
2018-Nov-21 12:01:43 1003.000 12.9 62 5.8 3.6 WNW   1.03 150.73
2018-Nov-21 13:01:44 1002.900 12.9 61 5.5 0.8 NNW   1.03 150.73
2018-Nov-21 14:01:47 1002.600 12.5 64 5.8       1.03 150.73
2018-Nov-21 15:01:44 1002.800 12.1 64 5.5 0.8 WNW   0.51 150.73
2018-Nov-21 16:01:51 1003.000 11.1 67 5.2         150.73
2018-Nov-21 17:01:39 1003.200 10.7 68 5.0         150.73
2018-Nov-21 18:01:41 1003.700 9.9 70 4.7         150.73
2018-Nov-21 19:01:57 1004.200 9.0 73 4.4         150.73
2018-Nov-21 20:01:54 1004.800 8.5 77 4.7         150.73
2018-Nov-21 21:01:42 1005.500 7.4 79 4.0         150.73
2018-Nov-21 22:01:57 1005.700 6.9 82 4.0         150.73
2018-Nov-21 23:01:53 1005.800 6.4 84 3.9         150.73

Temperatura Máxima:12°    Temperatura Mínima:
Presión Máxima:1005.800 Hpa    Presión Mínima:998.700 Hpa


Volver